Flight Track Log - Related Links

Times and Time Zones

All times are in EST time to prevent confusion due to time zone crossing. See the CPT7773 flight status page for this flight to view local times or setup timezone preferences in your user account.


Time Position Orientation Groundspeed Altitude Reporting Facility
EST Latitude Longitude Course Direction KTS MPH feet Rate Location/Type
Tue 08:11:21 PM 44.5278 -108.9283 133° Southeast 141 162 7,000  Level Salt Lake Center
Tue 08:12:23 PM 44.5203 -108.8767 101° East 136 157 7,800 829 Climbing Salt Lake Center
Tue 08:13:24 PM 44.5125 -108.8203 101° East 141 162 8,700 885 Climbing Salt Lake Center
Tue 08:14:25 PM 44.4981 -108.7658 110° East 145 167 9,600 836 Climbing Salt Lake Center
Tue 08:15:26 PM 44.4656 -108.7233 137° Southeast 152 175 10,400 732 Climbing Salt Lake Center
Tue 08:16:00 PM 44.3403 -108.7266 133° Southeast  Level Estimated
Tue 08:16:28 PM 44.4292 -108.6686 133° Southeast 159 183 11,100  Level Salt Lake Center
Tue 08:17:29 PM 44.3947 -108.6181 134° Southeast 166 191 11,000 -49 Descending Salt Lake Center
Tue 08:18:30 PM 44.3583 -108.5600 131° Southeast 180 207 11,000  Level Salt Lake Center
Tue 08:19:31 PM 44.3214 -108.5036 132° Southeast 190 219 11,000  Level Salt Lake Center
Tue 08:20:32 PM 44.2847 -108.4478 133° Southeast 194 223 11,000  Level Salt Lake Center
Tue 08:21:34 PM 44.2483 -108.3931 133° Southeast 195 224 11,000  Level Salt Lake Center
Tue 08:22:35 PM 44.2131 -108.3381 132° Southeast 193 222 11,000  Level Salt Lake Center
Tue 08:23:36 PM 44.1778 -108.2833 132° Southeast 192 221 11,000  Level Salt Lake Center
Tue 08:24:38 PM 44.1422 -108.2289 132° Southeast 191 220 11,000  Level Salt Lake Center
Tue 08:25:39 PM 44.1003 -108.1644 132° Southeast 190 219 11,000  Level Salt Lake Center
Tue 08:26:40 PM 44.0656 -108.1108 132° Southeast 188 216 11,000  Level Salt Lake Center
Tue 08:27:41 PM 44.0294 -108.0564 133° Southeast 190 219 11,000  Level Salt Lake Center
Tue 08:28:43 PM 43.9931 -108.0022 133° Southeast 191 220 11,000  Level Salt Lake Center
Tue 08:29:44 PM 43.9581 -107.9483 132° Southeast 190 219 11,000  Level Salt Lake Center
Tue 08:30:45 PM 43.9269 -107.8903 127° Southeast 189 217 11,000  Level Salt Lake Center
Tue 08:31:46 PM 43.8989 -107.8306 123° Southeast 187 215 11,000  Level Salt Lake Center
Tue 08:32:48 PM 43.8683 -107.7714 126° Southeast 187 215 11,000  Level Salt Lake Center
Tue 08:33:49 PM 43.8378 -107.7111 125° Southeast 189 217 11,000  Level Salt Lake Center
Tue 08:34:50 PM 43.8006 -107.6400 126° Southeast 191 220 11,000  Level Salt Lake Center
Tue 08:35:51 PM 43.7700 -107.5803 125° Southeast 191 220 11,000  Level Salt Lake Center
Tue 08:36:52 PM 43.7392 -107.5217 126° Southeast 190 219 11,000  Level Salt Lake Center
Tue 08:37:54 PM 43.7094 -107.4625 125° Southeast 189 217 11,000  Level Salt Lake Center
Tue 08:38:55 PM 43.6786 -107.4036 126° Southeast 189 217 11,000  Level Salt Lake Center
Tue 08:39:56 PM 43.6489 -107.3431 124° Southeast 189 217 11,000  Level Salt Lake Center
Tue 08:40:57 PM 43.6169 -107.2822 126° Southeast 192 221 11,000  Level Salt Lake Center
Tue 08:41:59 PM 43.5850 -107.2211 126° Southeast 195 224 11,000 49 Level Salt Lake Center
Tue 08:43:00 PM 43.5539 -107.1608 125° Southeast 196 226 11,100  Climbing Salt Lake Center
Tue 08:44:01 PM 43.5156 -107.0892 126° Southeast 194 223 11,000 -49 Descending Salt Lake Center
Tue 08:45:02 PM 43.4833 -107.0300 127° Southeast 194 223 11,000  Level Salt Lake Center
Tue 08:46:04 PM 43.4517 -106.9686 125° Southeast 197 227 11,000  Level Salt Lake Center
Tue 08:47:05 PM 43.4228 -106.9139 126° Southeast 193 222 11,000  Level Salt Lake Center
Tue 08:48:06 PM 43.3842 -106.8547 132° Southeast 188 216 11,000 -98 Level Salt Lake Center
Tue 08:49:07 PM 43.3408 -106.8233 152° Southeast 183 211 10,800 -390 Descending Salt Lake Center
Tue 08:50:09 PM 43.2914 -106.7814 148° Southeast 185 213 10,200 -585 Descending Salt Lake Center
Tue 08:51:10 PM 43.2497 -106.7433 146° Southeast 188 216 9,600 -639 Descending Salt Lake Center
Tue 08:52:11 PM 43.2083 -106.7058 147° Southeast 186 214 8,900 -780 Descending Salt Lake Center
Tue 08:53:13 PM 43.1606 -106.6647 148° Southeast 184 212 8,000 -508 Descending Salt Lake Center
Tue 08:54:09 PM 43.1203 -106.6306 148° Southeast 185 213 7,900 -372 Descending Denver Center
Tue 08:55:22 PM 43.0794 -106.5928 146° Southeast 142 163 7,200 -444 Descending Denver Center
Tue 08:56:24 PM 43.0381 -106.5558 147° Southeast 159 183 6,900 -293 Descending Denver Center
Tue 08:57:25 PM 43.0058 -106.5306 150° Southeast 155 178 6,600 -295 Descending Denver Center

Login

Don't have an account? Register now (free) for customized features, flight alerts, and more!